sensor_id;sensor_type;location;lat;lon;timestamp;P1;durP1;ratioP1;P2;durP2;ratioP2
16354;SDS011;8287;51.644;8.494;2024-03-02T00:00:14;6.70;;;5.85;;
16354;SDS011;8287;51.644;8.494;2024-03-02T00:02:40;8.93;;;5.70;;
16354;SDS011;8287;51.644;8.494;2024-03-02T00:05:07;6.78;;;5.90;;
16354;SDS011;8287;51.644;8.494;2024-03-02T00:07:38;9.75;;;6.65;;
16354;SDS011;8287;51.644;8.494;2024-03-02T00:10:08;10.57;;;7.20;;
16354;SDS011;8287;51.644;8.494;2024-03-02T00:12:36;8.52;;;6.38;;
16354;SDS011;8287;51.644;8.494;2024-03-02T00:15:04;8.27;;;6.32;;
16354;SDS011;8287;51.644;8.494;2024-03-02T00:17:44;7.80;;;6.65;;
16354;SDS011;8287;51.644;8.494;2024-03-02T00:20:11;8.40;;;6.40;;
16354;SDS011;8287;51.644;8.494;2024-03-02T00:22:47;9.80;;;6.65;;
16354;SDS011;8287;51.644;8.494;2024-03-02T00:25:14;7.13;;;5.78;;
16354;SDS011;8287;51.644;8.494;2024-03-02T00:27:41;7.88;;;6.18;;
16354;SDS011;8287;51.644;8.494;2024-03-02T00:30:12;6.72;;;5.75;;
16354;SDS011;8287;51.644;8.494;2024-03-02T00:33:07;7.85;;;5.28;;
16354;SDS011;8287;51.644;8.494;2024-03-02T00:35:34;7.13;;;5.07;;
16354;SDS011;8287;51.644;8.494;2024-03-02T00:38:04;6.63;;;5.18;;
16354;SDS011;8287;51.644;8.494;2024-03-02T00:40:32;6.45;;;5.20;;
16354;SDS011;8287;51.644;8.494;2024-03-02T00:42:59;6.65;;;4.97;;
16354;SDS011;8287;51.644;8.494;2024-03-02T00:45:26;6.28;;;5.28;;
16354;SDS011;8287;51.644;8.494;2024-03-02T00:47:53;7.10;;;4.90;;
16354;SDS011;8287;51.644;8.494;2024-03-02T00:50:19;7.88;;;5.50;;
16354;SDS011;8287;51.644;8.494;2024-03-02T00:52:46;10.60;;;6.35;;
16354;SDS011;8287;51.644;8.494;2024-03-02T00:55:14;7.63;;;5.97;;
16354;SDS011;8287;51.644;8.494;2024-03-02T00:57:41;8.13;;;5.22;;
16354;SDS011;8287;51.644;8.494;2024-03-02T01:00:09;7.70;;;5.82;;
16354;SDS011;8287;51.644;8.494;2024-03-02T01:02:40;7.82;;;5.60;;
16354;SDS011;8287;51.644;8.494;2024-03-02T01:05:07;7.47;;;5.63;;
16354;SDS011;8287;51.644;8.494;2024-03-02T01:07:34;7.35;;;5.45;;
16354;SDS011;8287;51.644;8.494;2024-03-02T01:10:01;6.80;;;5.05;;
16354;SDS011;8287;51.644;8.494;2024-03-02T01:12:29;6.60;;;5.22;;
16354;SDS011;8287;51.644;8.494;2024-03-02T01:14:55;9.75;;;5.85;;
16354;SDS011;8287;51.644;8.494;2024-03-02T01:17:22;7.65;;;5.72;;
16354;SDS011;8287;51.644;8.494;2024-03-02T01:19:48;8.18;;;5.70;;
16354;SDS011;8287;51.644;8.494;2024-03-02T01:22:15;8.65;;;6.03;;
16354;SDS011;8287;51.644;8.494;2024-03-02T01:24:45;9.85;;;6.35;;
16354;SDS011;8287;51.644;8.494;2024-03-02T01:27:11;9.80;;;6.82;;
16354;SDS011;8287;51.644;8.494;2024-03-02T01:29:39;10.68;;;7.35;;
16354;SDS011;8287;51.644;8.494;2024-03-02T01:32:06;7.53;;;6.30;;
16354;SDS011;8287;51.644;8.494;2024-03-02T01:34:32;10.70;;;7.78;;
16354;SDS011;8287;51.644;8.494;2024-03-02T01:36:59;10.27;;;7.15;;
16354;SDS011;8287;51.644;8.494;2024-03-02T01:39:25;11.48;;;7.68;;
16354;SDS011;8287;51.644;8.494;2024-03-02T01:41:52;11.10;;;7.30;;
16354;SDS011;8287;51.644;8.494;2024-03-02T01:44:18;10.52;;;7.75;;
16354;SDS011;8287;51.644;8.494;2024-03-02T01:46:46;9.05;;;6.70;;
16354;SDS011;8287;51.644;8.494;2024-03-02T01:49:13;8.38;;;6.38;;
16354;SDS011;8287;51.644;8.494;2024-03-02T01:51:39;11.18;;;7.53;;
16354;SDS011;8287;51.644;8.494;2024-03-02T01:54:06;9.00;;;6.78;;
16354;SDS011;8287;51.644;8.494;2024-03-02T01:56:32;10.60;;;7.03;;
16354;SDS011;8287;51.644;8.494;2024-03-02T01:58:59;11.07;;;6.75;;
16354;SDS011;8287;51.644;8.494;2024-03-02T02:01:26;8.32;;;6.95;;
16354;SDS011;8287;51.644;8.494;2024-03-02T02:03:54;9.75;;;7.25;;
16354;SDS011;8287;51.644;8.494;2024-03-02T02:06:20;10.57;;;7.90;;
16354;SDS011;8287;51.644;8.494;2024-03-02T02:08:47;8.98;;;6.70;;
16354;SDS011;8287;51.644;8.494;2024-03-02T02:11:14;14.13;;;7.43;;
16354;SDS011;8287;51.644;8.494;2024-03-02T02:13:41;10.40;;;6.97;;
16354;SDS011;8287;51.644;8.494;2024-03-02T02:16:08;9.38;;;7.25;;
16354;SDS011;8287;51.644;8.494;2024-03-02T02:18:35;9.63;;;6.78;;
16354;SDS011;8287;51.644;8.494;2024-03-02T02:21:03;8.50;;;6.93;;
16354;SDS011;8287;51.644;8.494;2024-03-02T02:23:31;10.82;;;7.10;;
16354;SDS011;8287;51.644;8.494;2024-03-02T02:25:57;6.93;;;5.88;;
16354;SDS011;8287;51.644;8.494;2024-03-02T02:28:24;10.77;;;7.45;;
16354;SDS011;8287;51.644;8.494;2024-03-02T02:30:50;9.63;;;6.97;;
16354;SDS011;8287;51.644;8.494;2024-03-02T02:33:19;8.27;;;6.97;;
16354;SDS011;8287;51.644;8.494;2024-03-02T02:35:45;9.45;;;6.40;;
16354;SDS011;8287;51.644;8.494;2024-03-02T02:38:12;10.90;;;7.20;;
16354;SDS011;8287;51.644;8.494;2024-03-02T02:40:40;7.78;;;6.40;;
16354;SDS011;8287;51.644;8.494;2024-03-02T02:43:06;8.45;;;7.05;;
16354;SDS011;8287;51.644;8.494;2024-03-02T02:45:33;9.02;;;6.65;;
16354;SDS011;8287;51.644;8.494;2024-03-02T02:47:59;7.35;;;5.97;;
16354;SDS011;8287;51.644;8.494;2024-03-02T02:50:27;7.10;;;5.68;;
16354;SDS011;8287;51.644;8.494;2024-03-02T02:52:54;7.53;;;5.97;;
16354;SDS011;8287;51.644;8.494;2024-03-02T02:55:20;7.85;;;6.18;;
16354;SDS011;8287;51.644;8.494;2024-03-02T02:57:48;8.07;;;6.10;;
16354;SDS011;8287;51.644;8.494;2024-03-02T03:00:15;9.95;;;6.22;;
16354;SDS011;8287;51.644;8.494;2024-03-02T03:02:44;7.47;;;6.20;;
16354;SDS011;8287;51.644;8.494;2024-03-02T03:05:12;7.50;;;6.15;;
16354;SDS011;8287;51.644;8.494;2024-03-02T03:07:40;10.88;;;6.90;;
16354;SDS011;8287;51.644;8.494;2024-03-02T03:10:07;9.68;;;6.05;;
16354;SDS011;8287;51.644;8.494;2024-03-02T03:12:34;7.60;;;5.97;;
16354;SDS011;8287;51.644;8.494;2024-03-02T03:15:03;10.48;;;5.93;;
16354;SDS011;8287;51.644;8.494;2024-03-02T03:17:31;8.55;;;6.30;;
16354;SDS011;8287;51.644;8.494;2024-03-02T03:19:58;10.20;;;6.55;;
16354;SDS011;8287;51.644;8.494;2024-03-02T03:22:25;9.15;;;6.60;;
16354;SDS011;8287;51.644;8.494;2024-03-02T03:24:52;9.25;;;6.70;;
16354;SDS011;8287;51.644;8.494;2024-03-02T03:27:19;11.93;;;7.13;;
16354;SDS011;8287;51.644;8.494;2024-03-02T03:29:45;9.75;;;6.65;;
16354;SDS011;8287;51.644;8.494;2024-03-02T03:32:13;8.75;;;6.43;;
16354;SDS011;8287;51.644;8.494;2024-03-02T03:34:40;9.60;;;6.55;;
16354;SDS011;8287;51.644;8.494;2024-03-02T03:37:06;11.45;;;7.32;;
16354;SDS011;8287;51.644;8.494;2024-03-02T03:39:33;10.60;;;8.20;;
16354;SDS011;8287;51.644;8.494;2024-03-02T03:42:00;9.15;;;7.57;;
16354;SDS011;8287;51.644;8.494;2024-03-02T03:44:27;11.88;;;8.02;;
16354;SDS011;8287;51.644;8.494;2024-03-02T03:46:53;10.05;;;8.07;;
16354;SDS011;8287;51.644;8.494;2024-03-02T03:49:21;11.48;;;9.13;;
16354;SDS011;8287;51.644;8.494;2024-03-02T03:51:48;12.25;;;8.80;;
16354;SDS011;8287;51.644;8.494;2024-03-02T03:54:14;13.00;;;9.48;;
16354;SDS011;8287;51.644;8.494;2024-03-02T03:56:41;13.27;;;9.98;;
16354;SDS011;8287;51.644;8.494;2024-03-02T03:59:07;15.52;;;10.65;;
16354;SDS011;8287;51.644;8.494;2024-03-02T04:01:34;12.77;;;10.00;;
16354;SDS011;8287;51.644;8.494;2024-03-02T04:04:00;13.55;;;10.80;;
16354;SDS011;8287;51.644;8.494;2024-03-02T04:06:30;14.20;;;10.55;;
16354;SDS011;8287;51.644;8.494;2024-03-02T04:08:57;15.65;;;11.50;;
16354;SDS011;8287;51.644;8.494;2024-03-02T04:11:23;16.30;;;11.70;;
16354;SDS011;8287;51.644;8.494;2024-03-02T04:13:50;15.57;;;11.73;;
16354;SDS011;8287;51.644;8.494;2024-03-02T04:16:16;15.38;;;10.95;;
16354;SDS011;8287;51.644;8.494;2024-03-02T04:18:43;16.38;;;11.93;;
16354;SDS011;8287;51.644;8.494;2024-03-02T04:21:09;17.52;;;11.10;;
16354;SDS011;8287;51.644;8.494;2024-03-02T04:23:37;18.27;;;11.73;;
16354;SDS011;8287;51.644;8.494;2024-03-02T04:26:04;15.85;;;11.57;;
16354;SDS011;8287;51.644;8.494;2024-03-02T04:28:31;15.65;;;11.60;;
16354;SDS011;8287;51.644;8.494;2024-03-02T04:30:58;16.25;;;11.25;;
16354;SDS011;8287;51.644;8.494;2024-03-02T04:33:24;15.82;;;11.35;;
16354;SDS011;8287;51.644;8.494;2024-03-02T04:35:51;17.02;;;10.82;;
16354;SDS011;8287;51.644;8.494;2024-03-02T04:38:17;18.30;;;12.48;;
16354;SDS011;8287;51.644;8.494;2024-03-02T04:40:45;16.25;;;11.48;;
16354;SDS011;8287;51.644;8.494;2024-03-02T04:43:12;19.77;;;11.88;;
16354;SDS011;8287;51.644;8.494;2024-03-02T04:45:41;16.38;;;11.85;;
16354;SDS011;8287;51.644;8.494;2024-03-02T04:48:08;17.60;;;11.93;;
16354;SDS011;8287;51.644;8.494;2024-03-02T04:50:35;20.80;;;12.55;;
16354;SDS011;8287;51.644;8.494;2024-03-02T04:53:01;18.55;;;11.98;;
16354;SDS011;8287;51.644;8.494;2024-03-02T04:55:28;19.45;;;11.98;;
16354;SDS011;8287;51.644;8.494;2024-03-02T04:58:30;17.13;;;12.35;;
16354;SDS011;8287;51.644;8.494;2024-03-02T05:00:56;15.73;;;12.40;;
16354;SDS011;8287;51.644;8.494;2024-03-02T05:03:23;15.48;;;12.05;;
16354;SDS011;8287;51.644;8.494;2024-03-02T05:05:49;17.58;;;12.35;;
16354;SDS011;8287;51.644;8.494;2024-03-02T05:08:16;18.38;;;13.10;;
16354;SDS011;8287;51.644;8.494;2024-03-02T05:10:42;16.05;;;11.70;;
16354;SDS011;8287;51.644;8.494;2024-03-02T05:13:09;18.10;;;12.70;;
16354;SDS011;8287;51.644;8.494;2024-03-02T05:15:36;16.83;;;11.90;;
16354;SDS011;8287;51.644;8.494;2024-03-02T05:18:04;15.60;;;10.55;;
16354;SDS011;8287;51.644;8.494;2024-03-02T05:20:31;18.02;;;12.50;;
16354;SDS011;8287;51.644;8.494;2024-03-02T05:22:57;17.08;;;10.40;;
16354;SDS011;8287;51.644;8.494;2024-03-02T05:25:24;17.30;;;11.43;;
16354;SDS011;8287;51.644;8.494;2024-03-02T05:27:50;15.82;;;10.82;;
16354;SDS011;8287;51.644;8.494;2024-03-02T05:30:17;14.82;;;10.75;;
16354;SDS011;8287;51.644;8.494;2024-03-02T05:32:45;17.48;;;11.35;;
16354;SDS011;8287;51.644;8.494;2024-03-02T05:35:11;19.13;;;11.15;;
16354;SDS011;8287;51.644;8.494;2024-03-02T05:37:38;16.00;;;11.23;;
16354;SDS011;8287;51.644;8.494;2024-03-02T05:40:05;17.20;;;11.50;;
16354;SDS011;8287;51.644;8.494;2024-03-02T05:42:33;14.93;;;10.52;;
16354;SDS011;8287;51.644;8.494;2024-03-02T05:44:59;18.17;;;11.50;;
16354;SDS011;8287;51.644;8.494;2024-03-02T05:47:26;15.27;;;9.23;;
16354;SDS011;8287;51.644;8.494;2024-03-02T05:49:54;14.95;;;9.57;;
16354;SDS011;8287;51.644;8.494;2024-03-02T05:52:20;12.30;;;8.85;;
16354;SDS011;8287;51.644;8.494;2024-03-02T05:54:47;15.90;;;9.95;;
16354;SDS011;8287;51.644;8.494;2024-03-02T05:57:14;11.90;;;9.00;;
16354;SDS011;8287;51.644;8.494;2024-03-02T05:59:56;11.45;;;8.60;;
16354;SDS011;8287;51.644;8.494;2024-03-02T06:02:23;13.45;;;8.65;;
16354;SDS011;8287;51.644;8.494;2024-03-02T06:04:50;9.57;;;7.63;;
16354;SDS011;8287;51.644;8.494;2024-03-02T06:07:18;12.32;;;8.32;;
16354;SDS011;8287;51.644;8.494;2024-03-02T06:09:44;10.10;;;7.38;;
16354;SDS011;8287;51.644;8.494;2024-03-02T06:12:13;10.50;;;7.57;;
16354;SDS011;8287;51.644;8.494;2024-03-02T06:14:40;13.77;;;8.85;;
16354;SDS011;8287;51.644;8.494;2024-03-02T06:17:06;11.25;;;6.93;;
16354;SDS011;8287;51.644;8.494;2024-03-02T06:19:33;11.32;;;7.93;;
16354;SDS011;8287;51.644;8.494;2024-03-02T06:21:59;13.60;;;9.25;;
16354;SDS011;8287;51.644;8.494;2024-03-02T06:24:27;13.75;;;8.95;;
16354;SDS011;8287;51.644;8.494;2024-03-02T06:26:53;12.40;;;8.68;;
16354;SDS011;8287;51.644;8.494;2024-03-02T06:29:20;11.55;;;8.00;;
16354;SDS011;8287;51.644;8.494;2024-03-02T06:31:47;11.68;;;7.13;;
16354;SDS011;8287;51.644;8.494;2024-03-02T06:34:13;13.18;;;7.70;;
16354;SDS011;8287;51.644;8.494;2024-03-02T06:36:40;12.10;;;7.65;;
16354;SDS011;8287;51.644;8.494;2024-03-02T06:39:07;10.68;;;7.30;;
16354;SDS011;8287;51.644;8.494;2024-03-02T06:41:35;11.65;;;7.70;;
16354;SDS011;8287;51.644;8.494;2024-03-02T06:44:02;10.75;;;7.10;;
16354;SDS011;8287;51.644;8.494;2024-03-02T06:46:29;9.65;;;7.50;;
16354;SDS011;8287;51.644;8.494;2024-03-02T06:48:55;9.57;;;6.65;;
16354;SDS011;8287;51.644;8.494;2024-03-02T06:51:22;12.40;;;6.82;;
16354;SDS011;8287;51.644;8.494;2024-03-02T06:53:48;8.57;;;6.25;;
16354;SDS011;8287;51.644;8.494;2024-03-02T06:56:15;10.55;;;7.07;;
16354;SDS011;8287;51.644;8.494;2024-03-02T06:58:43;9.10;;;6.18;;
16354;SDS011;8287;51.644;8.494;2024-03-02T07:01:09;10.95;;;5.80;;
16354;SDS011;8287;51.644;8.494;2024-03-02T07:03:36;10.02;;;7.32;;
16354;SDS011;8287;51.644;8.494;2024-03-02T07:06:04;9.80;;;6.93;;
16354;SDS011;8287;51.644;8.494;2024-03-02T07:08:31;8.85;;;6.82;;
16354;SDS011;8287;51.644;8.494;2024-03-02T07:10:57;14.45;;;6.63;;
16354;SDS011;8287;51.644;8.494;2024-03-02T07:13:24;9.65;;;6.55;;
16354;SDS011;8287;51.644;8.494;2024-03-02T07:15:52;9.63;;;6.65;;
16354;SDS011;8287;51.644;8.494;2024-03-02T07:18:46;10.15;;;6.07;;
16354;SDS011;8287;51.644;8.494;2024-03-02T07:21:16;7.43;;;5.25;;
16354;SDS011;8287;51.644;8.494;2024-03-02T07:23:43;9.27;;;6.22;;
16354;SDS011;8287;51.644;8.494;2024-03-02T07:26:09;10.02;;;5.88;;
16354;SDS011;8287;51.644;8.494;2024-03-02T07:28:36;11.13;;;5.60;;
16354;SDS011;8287;51.644;8.494;2024-03-02T07:31:04;8.45;;;5.82;;
16354;SDS011;8287;51.644;8.494;2024-03-02T07:33:31;6.63;;;5.05;;
16354;SDS011;8287;51.644;8.494;2024-03-02T07:35:58;7.65;;;5.80;;
16354;SDS011;8287;51.644;8.494;2024-03-02T07:38:25;8.63;;;5.57;;
16354;SDS011;8287;51.644;8.494;2024-03-02T07:40:52;9.35;;;5.90;;
16354;SDS011;8287;51.644;8.494;2024-03-02T07:43:19;9.38;;;5.75;;
16354;SDS011;8287;51.644;8.494;2024-03-02T07:45:46;7.88;;;5.45;;
16354;SDS011;8287;51.644;8.494;2024-03-02T07:48:14;8.52;;;5.78;;
16354;SDS011;8287;51.644;8.494;2024-03-02T07:50:41;8.30;;;6.00;;
16354;SDS011;8287;51.644;8.494;2024-03-02T07:53:08;10.55;;;6.78;;
16354;SDS011;8287;51.644;8.494;2024-03-02T07:55:35;7.60;;;5.88;;
16354;SDS011;8287;51.644;8.494;2024-03-02T07:58:01;8.60;;;6.35;;
16354;SDS011;8287;51.644;8.494;2024-03-02T08:00:28;9.15;;;6.07;;
16354;SDS011;8287;51.644;8.494;2024-03-02T08:02:54;8.68;;;6.32;;
16354;SDS011;8287;51.644;8.494;2024-03-02T08:05:23;10.02;;;6.47;;
16354;SDS011;8287;51.644;8.494;2024-03-02T08:07:50;7.97;;;6.03;;
16354;SDS011;8287;51.644;8.494;2024-03-02T08:10:17;7.38;;;6.20;;
16354;SDS011;8287;51.644;8.494;2024-03-02T08:12:44;7.13;;;5.45;;
16354;SDS011;8287;51.644;8.494;2024-03-02T08:15:11;13.32;;;6.35;;
16354;SDS011;8287;51.644;8.494;2024-03-02T08:17:38;9.20;;;6.38;;
16354;SDS011;8287;51.644;8.494;2024-03-02T08:20:10;10.52;;;7.03;;
16354;SDS011;8287;51.644;8.494;2024-03-02T08:22:38;8.27;;;6.18;;
16354;SDS011;8287;51.644;8.494;2024-03-02T08:25:06;9.52;;;6.82;;
16354;SDS011;8287;51.644;8.494;2024-03-02T08:27:34;11.82;;;7.10;;
16354;SDS011;8287;51.644;8.494;2024-03-02T08:30:01;11.52;;;6.82;;
16354;SDS011;8287;51.644;8.494;2024-03-02T08:32:31;12.35;;;6.93;;
16354;SDS011;8287;51.644;8.494;2024-03-02T08:34:57;10.68;;;6.78;;
16354;SDS011;8287;51.644;8.494;2024-03-02T08:37:24;9.95;;;6.68;;
16354;SDS011;8287;51.644;8.494;2024-03-02T08:39:53;9.73;;;6.82;;
16354;SDS011;8287;51.644;8.494;2024-03-02T08:42:19;8.15;;;5.40;;
16354;SDS011;8287;51.644;8.494;2024-03-02T08:44:46;6.80;;;5.22;;
16354;SDS011;8287;51.644;8.494;2024-03-02T08:47:13;9.25;;;5.78;;
16354;SDS011;8287;51.644;8.494;2024-03-02T08:49:39;7.88;;;5.63;;
16354;SDS011;8287;51.644;8.494;2024-03-02T08:52:06;8.88;;;5.47;;
16354;SDS011;8287;51.644;8.494;2024-03-02T08:54:33;6.70;;;5.30;;
16354;SDS011;8287;51.644;8.494;2024-03-02T08:57:02;6.55;;;4.95;;
16354;SDS011;8287;51.644;8.494;2024-03-02T08:59:28;8.65;;;5.15;;
16354;SDS011;8287;51.644;8.494;2024-03-02T09:01:56;7.75;;;5.05;;
16354;SDS011;8287;51.644;8.494;2024-03-02T09:04:23;6.38;;;5.07;;
16354;SDS011;8287;51.644;8.494;2024-03-02T09:06:50;6.90;;;5.20;;
16354;SDS011;8287;51.644;8.494;2024-03-02T09:09:16;6.28;;;4.70;;
16354;SDS011;8287;51.644;8.494;2024-03-02T09:11:43;8.45;;;4.95;;
16354;SDS011;8287;51.644;8.494;2024-03-02T09:14:11;7.80;;;5.18;;
16354;SDS011;8287;51.644;8.494;2024-03-02T09:16:37;8.57;;;5.05;;
16354;SDS011;8287;51.644;8.494;2024-03-02T09:19:04;8.18;;;5.15;;
16354;SDS011;8287;51.644;8.494;2024-03-02T09:21:30;6.65;;;5.18;;
16354;SDS011;8287;51.644;8.494;2024-03-02T09:23:57;7.57;;;5.28;;
16354;SDS011;8287;51.644;8.494;2024-03-02T09:26:23;6.57;;;4.43;;
16354;SDS011;8287;51.644;8.494;2024-03-02T09:28:50;6.82;;;4.78;;
16354;SDS011;8287;51.644;8.494;2024-03-02T09:31:19;7.97;;;5.07;;
16354;SDS011;8287;51.644;8.494;2024-03-02T09:33:46;8.80;;;5.38;;
16354;SDS011;8287;51.644;8.494;2024-03-02T09:36:19;7.13;;;3.83;;
16354;SDS011;8287;51.644;8.494;2024-03-02T09:38:46;5.13;;;4.20;;
16354;SDS011;8287;51.644;8.494;2024-03-02T09:41:13;5.68;;;4.35;;
16354;SDS011;8287;51.644;8.494;2024-03-02T09:43:40;6.25;;;3.72;;
16354;SDS011;8287;51.644;8.494;2024-03-02T09:46:07;6.07;;;3.88;;
16354;SDS011;8287;51.644;8.494;2024-03-02T09:48:36;6.68;;;3.58;;
16354;SDS011;8287;51.644;8.494;2024-03-02T09:51:04;6.28;;;3.75;;
16354;SDS011;8287;51.644;8.494;2024-03-02T09:53:32;3.85;;;3.25;;
16354;SDS011;8287;51.644;8.494;2024-03-02T09:55:59;3.92;;;2.97;;
16354;SDS011;8287;51.644;8.494;2024-03-02T09:58:26;3.92;;;2.90;;
16354;SDS011;8287;51.644;8.494;2024-03-02T10:00:52;5.72;;;3.17;;
16354;SDS011;8287;51.644;8.494;2024-03-02T10:03:19;4.60;;;2.70;;
16354;SDS011;8287;51.644;8.494;2024-03-02T10:05:47;3.53;;;2.65;;
16354;SDS011;8287;51.644;8.494;2024-03-02T10:08:14;3.72;;;2.50;;
16354;SDS011;8287;51.644;8.494;2024-03-02T10:10:40;3.65;;;2.95;;
16354;SDS011;8287;51.644;8.494;2024-03-02T10:13:09;2.35;;;2.13;;
16354;SDS011;8287;51.644;8.494;2024-03-02T10:15:36;3.40;;;2.30;;
16354;SDS011;8287;51.644;8.494;2024-03-02T10:18:05;2.55;;;2.35;;
16354;SDS011;8287;51.644;8.494;2024-03-02T10:20:35;2.10;;;1.67;;
16354;SDS011;8287;51.644;8.494;2024-03-02T10:23:10;2.25;;;1.73;;
16354;SDS011;8287;51.644;8.494;2024-03-02T10:25:37;2.15;;;1.95;;
16354;SDS011;8287;51.644;8.494;2024-03-02T10:28:04;2.53;;;1.95;;
16354;SDS011;8287;51.644;8.494;2024-03-02T10:30:31;2.15;;;1.85;;
16354;SDS011;8287;51.644;8.494;2024-03-02T10:32:58;2.83;;;1.80;;
16354;SDS011;8287;51.644;8.494;2024-03-02T10:35:25;2.30;;;1.50;;
16354;SDS011;8287;51.644;8.494;2024-03-02T10:37:52;3.90;;;1.85;;
16354;SDS011;8287;51.644;8.494;2024-03-02T10:40:22;1.92;;;1.65;;
16354;SDS011;8287;51.644;8.494;2024-03-02T10:42:49;1.95;;;1.75;;
16354;SDS011;8287;51.644;8.494;2024-03-02T10:45:17;2.10;;;1.50;;
16354;SDS011;8287;51.644;8.494;2024-03-02T10:47:46;1.40;;;1.00;;
16354;SDS011;8287;51.644;8.494;2024-03-02T10:50:13;1.95;;;1.55;;
16354;SDS011;8287;51.644;8.494;2024-03-02T10:52:40;1.90;;;1.33;;
16354;SDS011;8287;51.644;8.494;2024-03-02T10:55:08;3.17;;;1.30;;
16354;SDS011;8287;51.644;8.494;2024-03-02T10:57:40;1.50;;;0.80;;
16354;SDS011;8287;51.644;8.494;2024-03-02T11:00:09;1.67;;;1.58;;
16354;SDS011;8287;51.644;8.494;2024-03-02T11:02:40;1.10;;;1.05;;
16354;SDS011;8287;51.644;8.494;2024-03-02T11:05:13;1.70;;;1.40;;
16354;SDS011;8287;51.644;8.494;2024-03-02T11:07:44;1.45;;;1.20;;
16354;SDS011;8287;51.644;8.494;2024-03-02T11:10:11;1.55;;;1.15;;
16354;SDS011;8287;51.644;8.494;2024-03-02T11:12:43;2.88;;;1.05;;
16354;SDS011;8287;51.644;8.494;2024-03-02T11:15:15;1.20;;;1.10;;
16354;SDS011;8287;51.644;8.494;2024-03-02T11:17:43;2.83;;;1.52;;
16354;SDS011;8287;51.644;8.494;2024-03-02T11:20:11;1.85;;;1.15;;
16354;SDS011;8287;51.644;8.494;2024-03-02T11:22:37;1.77;;;1.50;;
16354;SDS011;8287;51.644;8.494;2024-03-02T11:25:04;1.90;;;1.80;;
16354;SDS011;8287;51.644;8.494;2024-03-02T11:28:05;3.45;;;2.05;;
16354;SDS011;8287;51.644;8.494;2024-03-02T11:30:52;2.38;;;1.55;;
16354;SDS011;8287;51.644;8.494;2024-03-02T11:33:22;1.70;;;1.30;;
16354;SDS011;8287;51.644;8.494;2024-03-02T11:35:52;1.25;;;1.15;;
16354;SDS011;8287;51.644;8.494;2024-03-02T11:38:19;1.10;;;1.00;;
16354;SDS011;8287;51.644;8.494;2024-03-02T11:40:45;1.30;;;1.02;;
16354;SDS011;8287;51.644;8.494;2024-03-02T11:43:14;1.40;;;1.20;;
16354;SDS011;8287;51.644;8.494;2024-03-02T11:45:41;2.67;;;1.38;;
16354;SDS011;8287;51.644;8.494;2024-03-02T11:48:12;1.35;;;1.20;;
16354;SDS011;8287;51.644;8.494;2024-03-02T11:50:41;2.42;;;1.20;;
16354;SDS011;8287;51.644;8.494;2024-03-02T11:53:09;1.95;;;1.30;;
16354;SDS011;8287;51.644;8.494;2024-03-02T11:55:38;1.30;;;1.20;;
16354;SDS011;8287;51.644;8.494;2024-03-02T11:58:05;1.88;;;1.02;;
16354;SDS011;8287;51.644;8.494;2024-03-02T12:00:33;1.30;;;1.20;;
16354;SDS011;8287;51.644;8.494;2024-03-02T12:03:00;1.40;;;1.30;;
16354;SDS011;8287;51.644;8.494;2024-03-02T12:05:28;1.63;;;1.23;;
16354;SDS011;8287;51.644;8.494;2024-03-02T12:07:56;1.48;;;1.20;;
16354;SDS011;8287;51.644;8.494;2024-03-02T12:10:23;1.65;;;1.55;;
16354;SDS011;8287;51.644;8.494;2024-03-02T12:12:55;2.78;;;1.33;;
16354;SDS011;8287;51.644;8.494;2024-03-02T12:15:22;2.03;;;1.30;;
16354;SDS011;8287;51.644;8.494;2024-03-02T12:17:53;1.33;;;1.20;;
16354;SDS011;8287;51.644;8.494;2024-03-02T12:20:20;1.92;;;1.30;;
16354;SDS011;8287;51.644;8.494;2024-03-02T12:22:49;2.05;;;1.60;;
16354;SDS011;8287;51.644;8.494;2024-03-02T12:25:15;1.45;;;1.30;;
16354;SDS011;8287;51.644;8.494;2024-03-02T12:27:42;2.20;;;1.60;;
16354;SDS011;8287;51.644;8.494;2024-03-02T12:30:09;1.67;;;1.42;;
16354;SDS011;8287;51.644;8.494;2024-03-02T12:32:38;2.40;;;1.80;;
16354;SDS011;8287;51.644;8.494;2024-03-02T12:35:07;2.63;;;1.70;;
16354;SDS011;8287;51.644;8.494;2024-03-02T12:37:41;2.00;;;1.70;;
16354;SDS011;8287;51.644;8.494;2024-03-02T12:40:09;1.65;;;1.30;;
16354;SDS011;8287;51.644;8.494;2024-03-02T12:42:36;2.28;;;1.60;;
16354;SDS011;8287;51.644;8.494;2024-03-02T12:45:03;4.72;;;1.90;;
16354;SDS011;8287;51.644;8.494;2024-03-02T12:47:30;2.15;;;1.58;;
16354;SDS011;8287;51.644;8.494;2024-03-02T12:49:57;1.50;;;1.40;;
16354;SDS011;8287;51.644;8.494;2024-03-02T12:52:26;1.80;;;1.45;;
16354;SDS011;8287;51.644;8.494;2024-03-02T12:54:52;5.18;;;1.70;;
16354;SDS011;8287;51.644;8.494;2024-03-02T12:57:24;3.45;;;2.33;;
16354;SDS011;8287;51.644;8.494;2024-03-02T12:59:52;2.17;;;1.98;;
16354;SDS011;8287;51.644;8.494;2024-03-02T13:02:19;4.10;;;2.63;;
16354;SDS011;8287;51.644;8.494;2024-03-02T13:04:52;5.13;;;2.70;;
16354;SDS011;8287;51.644;8.494;2024-03-02T13:07:19;3.53;;;3.08;;
16354;SDS011;8287;51.644;8.494;2024-03-02T13:09:48;4.30;;;3.60;;
16354;SDS011;8287;51.644;8.494;2024-03-02T13:12:15;5.10;;;3.00;;
16354;SDS011;8287;51.644;8.494;2024-03-02T13:14:42;3.30;;;2.78;;
16354;SDS011;8287;51.644;8.494;2024-03-02T13:17:09;4.55;;;3.35;;
16354;SDS011;8287;51.644;8.494;2024-03-02T13:19:35;3.20;;;2.90;;
16354;SDS011;8287;51.644;8.494;2024-03-02T13:22:02;4.30;;;3.33;;
16354;SDS011;8287;51.644;8.494;2024-03-02T13:24:29;3.45;;;2.85;;
16354;SDS011;8287;51.644;8.494;2024-03-02T13:26:57;3.78;;;3.25;;
16354;SDS011;8287;51.644;8.494;2024-03-02T13:29:25;3.55;;;3.25;;
16354;SDS011;8287;51.644;8.494;2024-03-02T13:31:51;3.83;;;3.15;;
16354;SDS011;8287;51.644;8.494;2024-03-02T13:34:18;4.22;;;3.10;;
16354;SDS011;8287;51.644;8.494;2024-03-02T13:36:45;3.50;;;2.67;;
16354;SDS011;8287;51.644;8.494;2024-03-02T13:39:11;4.15;;;2.67;;
16354;SDS011;8287;51.644;8.494;2024-03-02T13:41:40;3.42;;;2.45;;
16354;SDS011;8287;51.644;8.494;2024-03-02T13:44:09;4.60;;;2.72;;
16354;SDS011;8287;51.644;8.494;2024-03-02T13:46:36;2.83;;;2.63;;
16354;SDS011;8287;51.644;8.494;2024-03-02T13:49:03;3.30;;;2.72;;
16354;SDS011;8287;51.644;8.494;2024-03-02T13:51:29;3.13;;;2.72;;
16354;SDS011;8287;51.644;8.494;2024-03-02T13:53:58;4.32;;;2.70;;
16354;SDS011;8287;51.644;8.494;2024-03-02T13:56:24;4.85;;;3.03;;
16354;SDS011;8287;51.644;8.494;2024-03-02T13:58:51;3.25;;;2.95;;
16354;SDS011;8287;51.644;8.494;2024-03-02T14:01:19;3.08;;;2.45;;
16354;SDS011;8287;51.644;8.494;2024-03-02T14:03:45;2.70;;;2.50;;
16354;SDS011;8287;51.644;8.494;2024-03-02T14:06:12;3.10;;;2.65;;
16354;SDS011;8287;51.644;8.494;2024-03-02T14:08:39;3.05;;;2.20;;
16354;SDS011;8287;51.644;8.494;2024-03-02T14:11:05;2.45;;;2.05;;
16354;SDS011;8287;51.644;8.494;2024-03-02T14:13:32;2.33;;;2.13;;
16354;SDS011;8287;51.644;8.494;2024-03-02T14:15:58;3.40;;;2.33;;
16354;SDS011;8287;51.644;8.494;2024-03-02T14:18:26;3.22;;;2.35;;
16354;SDS011;8287;51.644;8.494;2024-03-02T14:20:53;3.00;;;2.70;;
16354;SDS011;8287;51.644;8.494;2024-03-02T14:23:20;3.35;;;2.20;;
16354;SDS011;8287;51.644;8.494;2024-03-02T14:25:46;4.18;;;3.53;;
16354;SDS011;8287;51.644;8.494;2024-03-02T14:28:13;3.80;;;3.40;;
16354;SDS011;8287;51.644;8.494;2024-03-02T14:30:41;2.70;;;2.50;;
16354;SDS011;8287;51.644;8.494;2024-03-02T14:33:08;4.13;;;2.95;;
16354;SDS011;8287;51.644;8.494;2024-03-02T14:35:37;3.55;;;2.35;;
16354;SDS011;8287;51.644;8.494;2024-03-02T14:38:03;3.38;;;2.25;;
16354;SDS011;8287;51.644;8.494;2024-03-02T14:40:30;2.35;;;2.10;;
16354;SDS011;8287;51.644;8.494;2024-03-02T14:42:56;3.13;;;2.70;;
16354;SDS011;8287;51.644;8.494;2024-03-02T14:45:23;3.38;;;2.20;;
16354;SDS011;8287;51.644;8.494;2024-03-02T14:47:50;2.35;;;2.15;;
16354;SDS011;8287;51.644;8.494;2024-03-02T14:50:26;3.17;;;2.10;;
16354;SDS011;8287;51.644;8.494;2024-03-02T14:52:56;3.22;;;2.22;;
16354;SDS011;8287;51.644;8.494;2024-03-02T14:55:23;3.55;;;2.10;;
16354;SDS011;8287;51.644;8.494;2024-03-02T14:57:50;2.30;;;2.10;;